CheckWX is a tool to help pilots better visualize weather data.  It is not intended as a substitute for an official pre-flight weather briefing.

06:59:03 UTC

LKMT TAF
Ostrava Leos Janáček Airport
Ostrava, Czech Republic
TAF LKMT 180500Z 1806/1912 04006KT CAVOK TEMPO 1900/1906 VRB02KT 1500 BR SCT005 BECMG 1909/1911 22008KT

Jun-18@
06:00 UTC

Jun-18 @ 06:00 UTC

Jun-19@
09:00 UTC

Jun-19 @ 09:00 UTC

TAF LKMT 180500Z 1806/1912 04006KT CAVOK
Wind
  • 040° at 6 KTS
Conditions
No significant weather
Cloud Levels
  • No significant clouds

Jun-19@
00:00 UTC

Jun-19 @ 00:00 UTC

Jun-19@
06:00 UTC

Jun-19 @ 06:00 UTC

TEMPO 1900/1906 VRB02KT 1500 BR SCT005

Temporary

Temporary Changes expected for less than half the time period

Wind
  • Variable at 2 KTS
Conditions
Mist
Cloud Levels
  • Scattered at 500' AGL

Jun-19@
09:00 UTC

Jun-19 @ 09:00 UTC

Jun-19@
12:00 UTC

Jun-19 @ 12:00 UTC

BECMG 1909/1911 22008KT

Becoming

Becoming Conditions expected by Wed, Jun 19, 2019 @ 11:00 UTC

Wind
  • 220° at 8 KTS
Conditions
No significant weather
Cloud Levels
  • No significant clouds